Time;durP1;ratioP1;P1;durP2;ratioP2;P2;SDS_P1;SDS_P2;PMS_P1;PMS_P2;Temp;Humidity;BMP_temperature;BMP_pressure;BME280_temperature;BME280_humidity;BME280_pressure;Samples;Min_cycle;Max_cycle;Signal;HPM_P1;HPM_P2
2022/12/12 00:00:22;;;;;;;0.00;0.00;;;;;;;-3.57;100.00;101121.06;10419193;28;20093;-77
2022/12/12 00:05:22;;;;;;;0.17;0.17;;;;;;;-3.55;100.00;101124.44;10417582;28;20117;-77
2022/12/12 00:10:22;;;;;;;0.10;0.10;;;;;;;-3.53;100.00;101126.06;10426758;28;20120;-77
2022/12/12 00:15:23;;;;;;;0.10;0.10;;;;;;;-3.49;100.00;101125.06;10417074;28;20284;-77
2022/12/12 00:20:23;;;;;;;0.20;0.20;;;;;;;-3.45;100.00;101126.63;10418626;28;20033;-77
2022/12/12 00:25:23;;;;;;;0.15;0.15;;;;;;;-3.41;100.00;101116.91;10416936;28;20040;-77
2022/12/12 00:30:24;;;;;;;0.10;0.10;;;;;;;-3.36;100.00;101125.38;10417570;28;20029;-78
2022/12/12 00:35:24;;;;;;;0.10;0.10;;;;;;;-3.32;100.00;101126.09;10417173;28;20580;-77
2022/12/12 00:40:25;;;;;;;0.10;0.10;;;;;;;-3.28;100.00;101130.28;10451887;28;20031;-77
2022/12/12 00:45:25;;;;;;;0.07;0.07;;;;;;;-3.29;100.00;101123.38;10428778;28;20072;-77
2022/12/12 00:50:25;;;;;;;0.10;0.10;;;;;;;-3.26;100.00;101118.03;10417039;28;20268;-77
2022/12/12 00:55:27;;;;;;;0.13;0.13;;;;;;;-3.24;100.00;101130.09;10414781;28;20081;-77
2022/12/12 01:00:27;;;;;;;0.10;0.10;;;;;;;-3.26;100.00;101118.03;10416126;28;20033;-77
2022/12/12 01:05:28;;;;;;;0.05;0.05;;;;;;;-3.27;100.00;101122.41;10389355;22;20058;-75
2022/12/12 01:10:28;;;;;;;0.10;0.10;;;;;;;-3.30;100.00;101127.75;10381030;28;20543;-75
2022/12/12 01:15:29;;;;;;;0.10;0.10;;;;;;;-3.35;100.00;101134.03;10382175;28;20891;-76
2022/12/12 01:20:29;;;;;;;0.20;0.20;;;;;;;-3.42;100.00;101131.69;10383765;28;20276;-76
2022/12/12 01:25:29;;;;;;;0.10;0.10;;;;;;;-3.51;100.00;101136.44;10372569;28;20504;-76
2022/12/12 01:30:30;;;;;;;0.10;0.10;;;;;;;-3.61;100.00;101135.09;10397805;28;20033;-76
2022/12/12 01:35:32;;;;;;;0.00;0.00;;;;;;;-3.73;100.00;101132.06;10390063;28;20324;-76
2022/12/12 01:40:32;;;;;;;0.10;0.10;;;;;;;-3.81;100.00;101141.97;10370056;28;20037;-77
2022/12/12 01:46:14;;;;;;;0.10;0.10;;;;;;;-3.87;100.00;101140.44;10379851;28;20017;-76
2022/12/12 01:51:18;;;;;;;0.10;0.10;;;;;;;-3.90;100.00;101143.16;10394790;28;20084;-77
2022/12/12 01:56:20;;;;;;;0.10;0.10;;;;;;;-3.95;100.00;101134.69;10393050;28;20037;-77
2022/12/12 02:01:21;;;;;;;0.17;0.17;;;;;;;-3.91;100.00;101138.00;10406487;28;20037;-76
2022/12/12 02:06:25;;;;;;;0.20;0.20;;;;;;;-3.84;100.00;101147.25;10396183;28;20481;-76
2022/12/12 02:11:31;;;;;;;0.10;0.10;;;;;;;-3.82;100.00;101137.63;10375201;28;20082;-76
2022/12/12 02:16:37;;;;;;;0.13;0.13;;;;;;;-3.88;100.00;101138.72;10381732;28;20038;-76
2022/12/12 02:21:50;;;;;;;0.10;0.10;;;;;;;-3.88;100.00;101140.47;10385112;28;20121;-77
2022/12/12 02:27:22;;;;;;;0.10;0.10;;;;;;;-3.83;100.00;101138.56;10395646;28;20388;-76
2022/12/12 02:32:55;;;;;;;0.20;0.20;;;;;;;-3.77;100.00;101127.06;10408331;28;20508;-77
2022/12/12 02:38:23;;;;;;;0.10;0.10;;;;;;;-3.73;100.00;101129.47;10399491;28;20124;-77
2022/12/12 02:43:33;;;;;;;0.10;0.10;;;;;;;-3.74;100.00;101132.97;10378583;28;20389;-76
2022/12/12 02:48:41;;;;;;;0.10;0.10;;;;;;;-3.77;100.00;101146.13;10389410;28;20113;-76
2022/12/12 02:53:42;;;;;;;0.20;0.20;;;;;;;-3.84;100.00;101152.47;10372718;28;20046;-76
2022/12/12 02:58:42;;;;;;;0.15;0.15;;;;;;;-3.88;100.00;101156.09;10389516;28;20030;-77
2022/12/12 03:09:47;;;;;;;0.10;0.10;;;;;;;-3.81;100.00;101161.91;10366479;28;20272;-75
2022/12/12 03:15:08;;;;;;;0.10;0.10;;;;;;;-3.80;100.00;101163.63;10374813;28;20496;-76
2022/12/12 03:20:41;;;;;;;0.10;0.10;;;;;;;-3.78;100.00;101167.00;10395301;28;20527;-78
2022/12/12 03:25:44;;;;;;;0.10;0.10;;;;;;;-3.80;100.00;101155.81;10375127;28;20030;-78
2022/12/12 03:30:50;;;;;;;0.10;0.10;;;;;;;-3.80;100.00;101154.06;10395172;28;20424;-78
2022/12/12 03:36:11;;;;;;;0.10;0.10;;;;;;;-3.84;100.00;101157.66;10403133;28;20068;-77
2022/12/12 03:41:19;;;;;;;0.00;0.00;;;;;;;-3.84;100.00;101156.81;10403323;28;20034;-78
2022/12/12 03:46:25;;;;;;;0.10;0.10;;;;;;;-3.84;100.00;101165.47;10383207;28;20433;-78
2022/12/12 03:51:37;;;;;;;0.10;0.10;;;;;;;-3.87;100.00;101163.00;10399325;28;20489;-78
2022/12/12 03:56:48;;;;;;;0.10;0.10;;;;;;;-3.94;100.00;101166.75;10390739;28;20484;-77
2022/12/12 04:01:55;;;;;;;0.10;0.10;;;;;;;-4.03;100.00;101172.31;10376205;28;20034;-75
2022/12/12 04:07:05;;;;;;;0.20;0.20;;;;;;;-4.10;100.00;101177.75;10387929;28;20048;-77
2022/12/12 04:17:53;;;;;;;;;;;;;;;-4.28;100.00;101174.94;10363307;28;20045;-77
2022/12/12 04:23:14;;;;;;;0.10;0.10;;;;;;;-4.35;100.00;101174.34;10392355;28;20008;-77
2022/12/12 04:28:15;;;;;;;0.10;0.10;;;;;;;-4.41;100.00;101179.75;10393450;28;20048;-77
2022/12/12 04:33:19;;;;;;;0.08;0.08;;;;;;;-4.45;100.00;101176.44;10377014;28;20495;-77
2022/12/12 04:38:23;;;;;;;0.10;0.10;;;;;;;-4.52;100.00;101176.69;10394994;28;20046;-76
2022/12/12 04:43:32;;;;;;;0.10;0.10;;;;;;;-4.55;100.00;101170.69;10383000;28;20034;-77
2022/12/12 04:48:39;;;;;;;0.10;0.10;;;;;;;-4.57;100.00;101169.03;10402285;28;20068;-77
2022/12/12 04:53:46;;;;;;;0.10;0.10;;;;;;;-4.61;100.00;101165.72;10375893;28;20429;-77
2022/12/12 04:58:47;;;;;;;0.20;0.20;;;;;;;-4.67;100.00;101165.09;10368096;28;20037;-76
2022/12/12 05:03:53;;;;;;;0.10;0.10;;;;;;;-4.78;100.00;101168.03;10359801;28;20030;-75
2022/12/12 05:08:55;;;;;;;0.10;0.10;;;;;;;-4.88;100.00;101164.09;10384615;28;20037;-75
2022/12/12 05:13:55;;;;;;;0.10;0.10;;;;;;;-5.05;100.00;101175.03;10382491;28;20038;-77
2022/12/12 05:18:56;;;;;;;0.10;0.10;;;;;;;-5.21;100.00;101179.03;10376002;28;20022;-77
2022/12/12 05:23:56;;;;;;;0.20;0.20;;;;;;;-5.39;100.00;101175.28;10373176;28;20262;-77
2022/12/12 05:28:57;;;;;;;0.10;0.10;;;;;;;-5.53;100.00;101175.72;10378295;28;20575;-75
2022/12/12 05:33:57;;;;;;;0.20;0.20;;;;;;;-5.64;100.00;101173.47;10370978;28;20036;-77
2022/12/12 05:38:58;;;;;;;0.10;0.10;;;;;;;-5.73;100.00;101179.78;10381157;28;20053;-76
2022/12/12 05:43:59;;;;;;;0.10;0.10;;;;;;;-5.81;100.00;101178.31;10372630;28;20018;-77
2022/12/12 05:48:59;;;;;;;0.20;0.20;;;;;;;-5.87;100.00;101187.13;10381829;28;20265;-77
2022/12/12 05:53:59;;;;;;;0.10;0.10;;;;;;;-5.88;100.00;101195.78;10385898;28;20040;-77
2022/12/12 05:59:00;;;;;;;0.10;0.10;;;;;;;-5.91;100.00;101191.53;10379769;28;20037;-77
2022/12/12 06:04:00;;;;;;;0.10;0.10;;;;;;;-5.95;100.00;101186.53;10380034;28;20280;-76
2022/12/12 06:09:00;;;;;;;0.20;0.20;;;;;;;-6.03;100.00;101193.69;10373102;28;20268;-76
2022/12/12 06:14:00;;;;;;;0.10;0.10;;;;;;;-6.11;100.00;101195.66;10369937;28;20277;-76
2022/12/12 06:19:01;;;;;;;0.20;0.20;;;;;;;-6.19;100.00;101201.06;10380788;28;20759;-76
2022/12/12 06:24:04;;;;;;;0.10;0.10;;;;;;;-6.38;100.00;101206.75;10377309;28;20786;-77
2022/12/12 06:29:05;;;;;;;0.20;0.20;;;;;;;-6.50;100.00;101212.28;10381415;28;20033;-76
2022/12/12 06:34:05;;;;;;;0.15;0.15;;;;;;;-6.56;100.00;101206.41;10373931;28;20026;-76
2022/12/12 06:39:05;;;;;;;0.20;0.20;;;;;;;-6.69;100.00;101205.88;10374341;28;20025;-75
2022/12/12 06:44:06;;;;;;;0.20;0.20;;;;;;;-6.70;100.00;101210.22;10378258;28;20390;-76
2022/12/12 06:49:08;;;;;;;0.15;0.15;;;;;;;-6.74;100.00;101207.75;10378091;28;20045;-76
2022/12/12 06:54:14;;;;;;;0.20;0.20;;;;;;;-6.77;100.00;101215.59;10376023;28;20172;-76
2022/12/12 06:59:15;;;;;;;0.20;0.20;;;;;;;-6.91;100.00;101206.44;10389870;28;20396;-76
2022/12/12 07:04:15;;;;;;;0.20;0.20;;;;;;;-6.96;100.00;101223.81;10407719;22;20041;-76
2022/12/12 07:09:16;;;;;;;0.10;0.10;;;;;;;-6.97;100.00;101224.72;10416046;28;20029;-76
2022/12/12 07:14:16;;;;;;;0.13;0.13;;;;;;;-7.04;100.00;101230.06;10414055;28;20090;-76
2022/12/12 07:19:16;;;;;;;0.20;0.20;;;;;;;-7.16;100.00;101234.66;10414207;28;20037;-76
2022/12/12 07:24:16;;;;;;;0.13;0.13;;;;;;;-7.15;100.00;101240.72;10406487;28;20032;-76
2022/12/12 07:29:17;;;;;;;0.20;0.20;;;;;;;-7.12;100.00;101246.66;10428379;28;20594;-76
2022/12/12 07:34:17;;;;;;;0.20;0.20;;;;;;;-7.09;100.00;101245.75;10429618;28;20311;-76
2022/12/12 07:39:17;;;;;;;0.28;0.28;;;;;;;-7.06;100.00;101243.06;10423147;28;20271;-76
2022/12/12 07:44:17;;;;;;;0.20;0.20;;;;;;;-7.10;100.00;101252.66;10421585;28;20268;-76
2022/12/12 07:49:18;;;;;;;0.15;0.15;;;;;;;-7.01;100.00;101254.19;10428057;28;20264;-76
2022/12/12 07:54:18;;;;;;;0.20;0.20;;;;;;;-6.94;100.00;101245.34;10421838;28;20280;-76
2022/12/12 07:59:19;;;;;;;0.20;0.20;;;;;;;-6.85;100.00;101254.63;10426096;28;20228;-76
2022/12/12 08:04:19;;;;;;;0.10;0.10;;;;;;;-6.77;100.00;101257.06;10422519;28;20037;-76
2022/12/12 08:09:20;;;;;;;0.20;0.20;;;;;;;-6.47;100.00;101258.84;10423771;28;20367;-76
2022/12/12 08:14:20;;;;;;;0.10;0.10;;;;;;;-6.24;100.00;101258.22;10423407;28;20571;-76
2022/12/12 08:19:21;;;;;;;0.10;0.10;;;;;;;-6.04;100.00;101260.28;10424147;28;20500;-76
2022/12/12 08:24:21;;;;;;;0.20;0.20;;;;;;;-5.92;100.00;101262.50;10425162;28;20079;-76
2022/12/12 08:29:21;;;;;;;0.20;0.20;;;;;;;-5.71;100.00;101279.19;10432482;28;20106;-76
2022/12/12 08:34:22;;;;;;;0.10;0.10;;;;;;;-5.39;100.00;101269.59;10430299;28;20044;-76
2022/12/12 08:39:22;;;;;;;0.20;0.20;;;;;;;-4.72;100.00;101281.34;10438540;28;20333;-76
2022/12/12 08:44:22;;;;;;;0.20;0.20;;;;;;;-4.08;100.00;101286.09;10425906;28;20088;-76
2022/12/12 08:49:23;;;;;;;0.15;0.15;;;;;;;-3.63;100.00;101285.34;10430648;28;20260;-76
2022/12/12 08:54:24;;;;;;;0.00;0.00;;;;;;;-3.14;100.00;101288.66;10432550;28;20541;-76
2022/12/12 08:59:24;;;;;;;0.10;0.10;;;;;;;-2.68;100.00;101297.25;10436034;28;20355;-76
2022/12/12 09:04:25;;;;;;;0.08;0.08;;;;;;;-2.33;100.00;101298.38;10435176;28;20113;-77
2022/12/12 09:09:25;;;;;;;0.00;0.00;;;;;;;-2.22;100.00;101298.78;10441872;28;20033;-76
2022/12/12 09:14:25;;;;;;;0.10;0.10;;;;;;;-2.06;100.00;101301.59;10415555;28;20036;-76
2022/12/12 09:19:26;;;;;;;0.00;0.00;;;;;;;-1.95;100.00;101303.72;10428491;28;20042;-76
2022/12/12 09:24:26;;;;;;;0.00;0.00;;;;;;;-1.94;100.00;101308.03;10428021;28;20406;-76
2022/12/12 09:29:26;;;;;;;0.10;0.10;;;;;;;-2.03;100.00;101300.59;10428348;28;20030;-76
2022/12/12 09:34:26;;;;;;;0.03;0.03;;;;;;;-2.24;100.00;101302.34;10417429;28;20036;-76
2022/12/12 09:39:27;;;;;;;0.00;0.00;;;;;;;-2.32;100.00;101289.66;10438021;28;20059;-76
2022/12/12 09:44:27;;;;;;;0.00;0.00;;;;;;;-2.35;100.00;101301.06;10438563;28;20025;-76
2022/12/12 09:49:48;;;;;;;0.10;0.10;;;;;;;-2.38;100.00;101293.38;10425703;28;20263;-76
2022/12/12 09:54:48;;;;;;;0.00;0.00;;;;;;;-2.44;100.00;101293.63;10414330;28;20052;-77
2022/12/12 10:00:00;;;;;;;0.00;0.00;;;;;;;-2.40;100.00;101305.63;10411673;28;20251;-76
2022/12/12 10:05:07;;;;;;;0.00;0.00;;;;;;;-2.38;100.00;101298.59;10432471;28;20130;-76
2022/12/12 10:10:17;;;;;;;0.00;0.00;;;;;;;-2.39;100.00;101302.09;10425584;28;20578;-76
2022/12/12 10:15:32;;;;;;;0.10;0.10;;;;;;;-2.33;100.00;101291.44;10437471;28;20469;-76
2022/12/12 10:20:44;;;;;;;0.10;0.10;;;;;;;-2.32;100.00;101292.25;10435259;28;20036;-77
2022/12/12 10:25:55;;;;;;;0.00;0.00;;;;;;;-2.28;100.00;101296.44;10413779;28;20100;-76
2022/12/12 10:31:14;;;;;;;0.10;0.10;;;;;;;-2.20;100.00;101296.13;10402962;28;20028;-76
2022/12/12 10:36:20;;;;;;;0.10;0.10;;;;;;;-2.19;100.00;101290.81;10432565;28;20503;-76
2022/12/12 10:41:40;;;;;;;0.10;0.10;;;;;;;-2.21;100.00;101300.50;10426216;28;20408;-76
2022/12/12 10:47:01;;;;;;;0.10;0.10;;;;;;;-2.24;100.00;101297.13;10429560;28;20036;-76
2022/12/12 10:52:09;;;;;;;0.10;0.10;;;;;;;-2.26;100.00;101280.72;10418899;28;20474;-77
2022/12/12 10:57:10;;;;;;;0.00;0.00;;;;;;;-2.28;100.00;101281.63;10423695;28;20045;-76
2022/12/12 11:02:23;;;;;;;0.10;0.10;;;;;;;-2.29;100.00;101279.94;10424931;28;20049;-76
2022/12/12 11:07:24;;;;;;;0.00;0.00;;;;;;;-2.31;100.00;101273.91;10420110;28;20037;-76
2022/12/12 11:12:33;;;;;;;0.05;0.05;;;;;;;-2.32;100.00;101271.38;10428593;28;20480;-76
2022/12/12 11:17:33;;;;;;;0.10;0.10;;;;;;;-2.34;100.00;101279.28;10427643;28;20036;-77
2022/12/12 11:22:37;;;;;;;0.00;0.00;;;;;;;-2.35;100.00;101271.53;10425578;28;20052;-76
2022/12/12 11:27:39;;;;;;;0.03;0.03;;;;;;;-2.34;100.00;101270.59;10434343;28;20079;-76
2022/12/12 11:32:43;;;;;;;0.00;0.00;;;;;;;-2.34;100.00;101268.84;10438752;28;20095;-76
2022/12/12 11:37:47;;;;;;;0.00;0.00;;;;;;;-2.32;100.00;101268.78;10405416;28;20032;-75
2022/12/12 11:42:47;;;;;;;0.10;0.10;;;;;;;-2.31;100.00;101260.88;10416490;28;20428;-75
2022/12/12 11:47:48;;;;;;;0.00;0.00;;;;;;;-2.26;100.00;101259.84;10423065;28;20017;-75
2022/12/12 11:52:51;;;;;;;0.10;0.10;;;;;;;-2.25;100.00;101262.38;10417931;28;20268;-75
2022/12/12 11:58:05;;;;;;;0.03;0.03;;;;;;;-2.25;100.00;101249.31;10400599;28;20487;-75
2022/12/12 12:03:21;;;;;;;0.10;0.10;;;;;;;-2.21;100.00;101257.84;10417600;28;20167;-74
2022/12/12 12:08:43;;;;;;;0.15;0.15;;;;;;;-2.16;100.00;101248.91;10395997;28;20044;-74
2022/12/12 12:14:08;;;;;;;0.00;0.00;;;;;;;-2.14;100.00;101248.88;10417163;28;20476;-75
2022/12/12 12:19:11;;;;;;;0.00;0.00;;;;;;;-2.17;100.00;101254.22;10421365;28;20049;-75
2022/12/12 12:24:23;;;;;;;0.00;0.00;;;;;;;-2.12;100.00;101254.88;10412865;28;20030;-75
2022/12/12 12:29:55;;;;;;;0.10;0.10;;;;;;;-2.09;100.00;101254.75;10414326;28;20041;-75
2022/12/12 12:35:23;;;;;;;0.10;0.10;;;;;;;-2.08;100.00;101259.03;10412555;28;20067;-75
2022/12/12 12:40:30;;;;;;;0.00;0.00;;;;;;;-2.07;100.00;101256.34;10422621;28;20044;-75
2022/12/12 12:45:51;;;;;;;0.00;0.00;;;;;;;-2.06;100.00;101244.16;10409621;28;20087;-75
2022/12/12 12:51:03;;;;;;;0.00;0.00;;;;;;;-2.05;100.00;101251.91;10412547;28;20488;-75
2022/12/12 12:56:18;;;;;;;0.00;0.00;;;;;;;-2.03;100.00;101246.63;10430161;28;20031;-75
2022/12/12 13:01:36;;;;;;;0.10;0.10;;;;;;;-2.05;100.00;101248.44;10430044;28;20284;-75
2022/12/12 13:06:46;;;;;;;0.00;0.00;;;;;;;-2.05;100.00;101251.91;10411001;28;20091;-75
2022/12/12 13:11:49;;;;;;;0.00;0.00;;;;;;;-2.08;100.00;101251.19;10417782;28;20065;-75
2022/12/12 13:16:51;;;;;;;0.00;0.00;;;;;;;-2.11;100.00;101241.75;10416131;28;20029;-75
2022/12/12 13:21:59;;;;;;;0.05;0.05;;;;;;;-2.13;100.00;101251.38;10414557;28;20127;-75
2022/12/12 13:27:12;;;;;;;0.00;0.00;;;;;;;-2.16;100.00;101254.13;10395822;28;20112;-75
2022/12/12 13:32:39;;;;;;;0.00;0.00;;;;;;;-2.21;100.00;101244.81;10398534;28;20029;-75
2022/12/12 13:37:58;;;;;;;0.00;0.00;;;;;;;-2.23;100.00;101242.28;10450468;28;20044;-74
2022/12/12 13:43:02;;;;;;;0.00;0.00;;;;;;;-2.26;100.00;101250.25;10416965;28;20041;-75
2022/12/12 13:48:04;;;;;;;0.10;0.10;;;;;;;-2.31;100.00;101253.03;10421459;28;20036;-74
2022/12/12 13:53:05;;;;;;;0.10;0.10;;;;;;;-2.34;100.00;101247.13;10408880;28;20030;-74
2022/12/12 13:58:16;;;;;;;0.08;0.08;;;;;;;-2.37;100.00;101253.31;10408934;28;20037;-74
2022/12/12 14:03:26;;;;;;;0.08;0.08;;;;;;;-2.41;100.00;101259.59;10390601;28;20088;-74
2022/12/12 14:08:33;;;;;;;0.10;0.10;;;;;;;-2.47;100.00;101259.84;10433820;28;20038;-74
2022/12/12 14:13:44;;;;;;;0.10;0.10;;;;;;;-2.52;100.00;101260.03;10415538;28;20034;-74
2022/12/12 14:18:50;;;;;;;0.00;0.00;;;;;;;-2.61;100.00;101254.38;10418345;28;20048;-74
2022/12/12 14:23:52;;;;;;;0.00;0.00;;;;;;;-2.72;100.00;101252.19;10407512;28;20032;-74
2022/12/12 14:29:32;;;;;;;0.10;0.10;;;;;;;-2.88;100.00;101243.31;10406750;28;20092;-74
2022/12/12 14:34:32;;;;;;;0.00;0.00;;;;;;;-2.98;100.00;101248.06;10236337;28;20046;-74
2022/12/12 14:39:45;;;;;;;0.10;0.10;;;;;;;-3.13;100.00;101248.69;10373105;28;20045;-74
2022/12/12 14:44:45;;;;;;;0.10;0.10;;;;;;;-3.26;100.00;101253.50;10412888;28;20037;-75
2022/12/12 14:49:45;;;;;;;0.10;0.10;;;;;;;-3.34;100.00;101256.44;10414775;28;20037;-75
2022/12/12 14:54:49;;;;;;;0.10;0.10;;;;;;;-3.48;100.00;101264.78;10406294;28;20026;-75
2022/12/12 14:59:49;;;;;;;0.10;0.10;;;;;;;-3.62;100.00;101261.00;10408363;28;20107;-75
2022/12/12 15:04:55;;;;;;;0.00;0.00;;;;;;;-3.74;100.00;101257.09;10406706;28;20079;-75
2022/12/12 15:09:55;;;;;;;;;;;;;;;-3.94;100.00;101256.06;10412085;28;20448;-75
2022/12/12 15:14:56;;;;;;;0.08;0.08;;;;;;;-4.08;100.00;101258.31;10422234;28;19909;-74
2022/12/12 15:20:00;;;;;;;0.10;0.10;;;;;;;-4.23;100.00;101262.31;10413345;28;20045;-74
2022/12/12 15:25:22;;;;;;;0.10;0.10;;;;;;;-4.36;100.00;101261.91;10405559;28;20104;-74
2022/12/12 15:30:36;;;;;;;0.10;0.10;;;;;;;-4.57;100.00;101263.50;10413769;28;20361;-74
2022/12/12 15:35:36;;;;;;;0.10;0.10;;;;;;;-4.70;100.00;101272.59;10437058;28;20029;-74
2022/12/12 15:40:38;;;;;;;0.10;0.10;;;;;;;-4.83;100.00;101272.16;10435768;28;20491;-74
2022/12/12 15:45:50;;;;;;;0.10;0.10;;;;;;;-4.94;100.00;101276.84;10389690;28;20461;-74
2022/12/12 15:50:58;;;;;;;0.10;0.10;;;;;;;-4.98;100.00;101279.59;10417795;28;20071;-74
2022/12/12 15:56:01;;;;;;;0.10;0.10;;;;;;;-5.04;100.00;101280.63;10404886;28;20033;-74
2022/12/12 16:01:20;;;;;;;0.10;0.10;;;;;;;-5.13;100.00;101289.56;10406306;28;20044;-74
2022/12/12 16:06:26;;;;;;;0.15;0.15;;;;;;;-5.25;100.00;101284.75;10411042;28;20107;-74
2022/12/12 16:11:30;;;;;;;0.10;0.10;;;;;;;-5.36;100.00;101289.41;10419847;28;20044;-76
2022/12/12 16:16:39;;;;;;;0.10;0.10;;;;;;;-5.40;100.00;101291.25;10418857;28;20030;-76
2022/12/12 16:21:41;;;;;;;0.10;0.10;;;;;;;-5.41;100.00;101283.50;10418154;28;20048;-75
2022/12/12 16:26:41;;;;;;;0.10;0.10;;;;;;;-5.43;100.00;101288.75;10424664;28;20139;-74
2022/12/12 16:31:43;;;;;;;0.20;0.20;;;;;;;-5.45;100.00;101280.16;10413719;28;20051;-74
2022/12/12 16:36:43;;;;;;;0.10;0.10;;;;;;;-5.47;100.00;101285.41;10425444;28;20340;-74
2022/12/12 16:41:44;;;;;;;0.10;0.10;;;;;;;-5.58;100.00;101279.69;10428670;28;20036;-74
2022/12/12 16:46:44;;;;;;;0.10;0.10;;;;;;;-5.72;100.00;101276.66;10428692;28;20107;-75
2022/12/12 16:51:44;;;;;;;0.20;0.20;;;;;;;-5.80;100.00;101289.81;10409525;28;20499;-75
2022/12/12 16:56:51;;;;;;;0.10;0.10;;;;;;;-5.88;100.00;101290.94;10428182;28;20279;-75
2022/12/12 17:01:51;;;;;;;0.15;0.15;;;;;;;-5.93;100.00;101284.16;10436762;28;20260;-75
2022/12/12 17:06:51;;;;;;;0.20;0.20;;;;;;;-5.97;100.00;101279.94;10453035;28;20384;-75
2022/12/12 17:11:52;;;;;;;0.20;0.20;;;;;;;-6.09;100.00;101272.50;10421529;28;20658;-75
2022/12/12 17:16:52;;;;;;;0.20;0.20;;;;;;;-6.34;100.00;101280.13;10423826;28;20029;-74
2022/12/12 17:21:52;;;;;;;0.15;0.15;;;;;;;-6.46;100.00;101278.69;10432236;28;20037;-75
2022/12/12 17:26:53;;;;;;;0.13;0.13;;;;;;;-6.59;100.00;101277.31;10444132;28;20028;-75
2022/12/12 17:31:53;;;;;;;0.10;0.10;;;;;;;-6.72;100.00;101283.66;10433874;28;20611;-75
2022/12/12 17:36:53;;;;;;;0.20;0.20;;;;;;;-6.88;100.00;101276.28;10432629;28;20338;-75
2022/12/12 17:41:54;;;;;;;0.17;0.17;;;;;;;-6.96;100.00;101275.63;10412628;28;20038;-75
2022/12/12 17:46:54;;;;;;;0.20;0.20;;;;;;;-6.99;100.00;101275.69;10428839;28;20251;-75
2022/12/12 17:51:54;;;;;;;0.20;0.20;;;;;;;-7.03;100.00;101281.00;10424331;28;20396;-75
2022/12/12 17:56:54;;;;;;;0.20;0.20;;;;;;;-7.15;100.00;101276.97;10443355;28;20035;-75
2022/12/12 18:01:55;;;;;;;0.20;0.20;;;;;;;-7.24;100.00;101283.19;10418731;28;20282;-75
2022/12/12 18:06:55;;;;;;;0.20;0.20;;;;;;;-7.21;100.00;101282.25;10431580;28;20028;-74
2022/12/12 18:11:55;;;;;;;0.20;0.20;;;;;;;-7.24;100.00;101287.50;10409294;28;20262;-75
2022/12/12 18:16:56;;;;;;;0.20;0.20;;;;;;;-7.26;100.00;101286.69;10430331;28;20276;-75
2022/12/12 18:21:56;;;;;;;0.15;0.15;;;;;;;-7.26;100.00;101284.13;10414291;28;20485;-76
2022/12/12 18:26:58;;;;;;;0.15;0.15;;;;;;;-7.27;100.00;101283.28;10437807;28;20615;-75
2022/12/12 18:31:59;;;;;;;0.10;0.10;;;;;;;-7.24;100.00;101272.84;10440971;28;20550;-75
2022/12/12 18:36:59;;;;;;;0.15;0.15;;;;;;;-7.20;100.00;101284.81;10433132;28;20052;-75
2022/12/12 18:41:59;;;;;;;0.20;0.20;;;;;;;-7.24;100.00;101274.56;10426642;28;20473;-75
2022/12/12 18:46:59;;;;;;;0.10;0.10;;;;;;;-7.38;100.00;101264.53;10429683;28;20268;-75
2022/12/12 18:52:00;;;;;;;0.10;0.10;;;;;;;-7.49;100.00;101267.34;10411991;28;20291;-75
2022/12/12 18:57:00;;;;;;;0.10;0.10;;;;;;;-7.52;100.00;101262.25;10414005;28;20182;-75
2022/12/12 19:02:01;;;;;;;0.10;0.10;;;;;;;-7.60;100.00;101267.56;10403711;28;20041;-75
2022/12/12 19:07:01;;;;;;;0.20;0.20;;;;;;;-7.71;100.00;101282.47;10387657;22;20053;-77
2022/12/12 19:12:01;;;;;;;0.20;0.20;;;;;;;-7.85;100.00;101285.34;10354715;28;20754;-77
2022/12/12 19:17:02;;;;;;;0.10;0.10;;;;;;;-8.00;100.00;101275.31;10337996;28;20289;-77
2022/12/12 19:22:02;;;;;;;0.10;0.10;;;;;;;-8.02;100.00;101285.69;10310333;28;20331;-77
2022/12/12 19:27:02;;;;;;;0.17;0.17;;;;;;;-8.12;100.00;101291.06;10318686;28;20031;-78
2022/12/12 19:32:03;;;;;;;0.20;0.20;;;;;;;-8.11;100.00;101296.22;10303895;28;20277;-77
2022/12/12 19:37:04;;;;;;;0.10;0.10;;;;;;;-8.14;100.00;101300.56;10322926;28;20056;-78
2022/12/12 19:42:04;;;;;;;0.20;0.20;;;;;;;-8.15;100.00;101291.13;10285931;28;20050;-77
2022/12/12 19:47:06;;;;;;;0.20;0.20;;;;;;;-8.16;100.00;101285.09;10292569;28;20097;-77
2022/12/12 19:52:06;;;;;;;0.17;0.17;;;;;;;-8.25;100.00;101288.72;10314861;28;20436;-78
2022/12/12 19:57:06;;;;;;;0.20;0.20;;;;;;;-8.25;100.00;101296.47;10306884;28;20027;-78
2022/12/12 20:02:08;;;;;;;0.10;0.10;;;;;;;-8.17;100.00;101287.69;10315599;28;20560;-77
2022/12/12 20:07:09;;;;;;;0.20;0.20;;;;;;;-8.11;100.00;101278.13;10360512;28;20269;-78
2022/12/12 20:12:09;;;;;;;0.20;0.20;;;;;;;-8.14;100.00;101280.75;10350181;28;20030;-77
2022/12/12 20:17:10;;;;;;;0.10;0.10;;;;;;;-8.14;100.00;101285.06;10318092;28;20100;-77
2022/12/12 20:22:10;;;;;;;0.17;0.17;;;;;;;-8.15;100.00;101266.13;10309366;28;20080;-77
2022/12/12 20:27:11;;;;;;;0.20;0.20;;;;;;;-8.21;100.00;101268.81;10311379;28;20505;-76
2022/12/12 20:32:12;;;;;;;0.10;0.10;;;;;;;-8.41;100.00;101276.97;10313361;28;20581;-76
2022/12/12 20:37:12;;;;;;;0.10;0.10;;;;;;;-8.45;100.00;101291.69;10375514;28;20041;-77
2022/12/12 20:42:12;;;;;;;0.20;0.20;;;;;;;-8.44;100.00;101289.94;10311277;28;20049;-77
2022/12/12 20:47:15;;;;;;;0.20;0.20;;;;;;;-8.36;100.00;101293.22;10351719;28;20278;-76
2022/12/12 20:52:16;;;;;;;0.20;0.20;;;;;;;-8.31;100.00;101295.72;10333994;28;20336;-76
2022/12/12 20:57:16;;;;;;;0.20;0.20;;;;;;;-8.34;100.00;101291.47;10330526;28;20045;-77
2022/12/12 21:02:16;;;;;;;0.20;0.20;;;;;;;-8.33;100.00;101290.56;10319784;28;20043;-76
2022/12/12 21:07:17;;;;;;;0.20;0.20;;;;;;;-8.40;100.00;101290.78;10337206;28;20034;-76
2022/12/12 21:12:17;;;;;;;0.20;0.20;;;;;;;-8.47;100.00;101290.84;10320783;28;20041;-73
2022/12/12 21:17:17;;;;;;;0.20;0.20;;;;;;;-8.34;100.00;101288.03;10324753;28;20292;-74
2022/12/12 21:22:18;;;;;;;0.10;0.10;;;;;;;-8.27;100.00;101282.72;10326088;28;20763;-73
2022/12/12 21:27:18;;;;;;;0.10;0.10;;;;;;;-8.27;100.00;101298.22;10308493;28;20341;-73
2022/12/12 21:32:18;;;;;;;0.20;0.20;;;;;;;-8.34;100.00;101312.13;10292904;28;20117;-74
2022/12/12 21:37:18;;;;;;;0.10;0.10;;;;;;;-8.39;100.00;101301.06;10336385;28;20440;-73
2022/12/12 21:42:19;;;;;;;0.20;0.20;;;;;;;-8.36;100.00;101298.38;10328610;28;20293;-73
2022/12/12 21:47:20;;;;;;;0.17;0.17;;;;;;;-8.32;100.00;101294.88;10322966;28;20258;-74
2022/12/12 21:52:20;;;;;;;0.10;0.10;;;;;;;-8.39;100.00;101301.06;10309791;28;20258;-73
2022/12/12 21:57:21;;;;;;;0.20;0.20;;;;;;;-8.46;100.00;101305.50;10311595;28;20305;-75
2022/12/12 22:02:21;;;;;;;0.20;0.20;;;;;;;-8.35;100.00;101317.31;10307358;28;20045;-75
2022/12/12 22:07:21;;;;;;;0.10;0.10;;;;;;;-8.24;100.00;101308.50;10321778;28;20110;-73
2022/12/12 22:12:22;;;;;;;0.10;0.10;;;;;;;-8.15;100.00;101298.88;10328151;28;20388;-75
2022/12/12 22:17:22;;;;;;;0.13;0.13;;;;;;;-8.17;100.00;101295.47;10327731;28;20290;-75
2022/12/12 22:22:23;;;;;;;0.10;0.10;;;;;;;-8.22;100.00;101293.81;10323880;28;20357;-75
2022/12/12 22:27:23;;;;;;;0.20;0.20;;;;;;;-8.25;100.00;101301.63;10309283;28;20304;-74
2022/12/12 22:32:23;;;;;;;0.13;0.13;;;;;;;-8.20;100.00;101306.72;10327481;28;20313;-75
2022/12/12 22:37:24;;;;;;;0.20;0.20;;;;;;;-8.24;100.00;101294.72;10321111;28;20277;-75
2022/12/12 22:42:24;;;;;;;0.10;0.10;;;;;;;-8.38;100.00;101292.38;10320038;28;20270;-75
2022/12/12 22:47:24;;;;;;;0.10;0.10;;;;;;;-8.50;100.00;101285.75;10314413;28;20040;-75
2022/12/12 22:52:25;;;;;;;0.30;0.30;;;;;;;-8.52;100.00;101273.72;10284999;28;20030;-73
2022/12/12 22:57:27;;;;;;;0.20;0.20;;;;;;;-8.57;100.00;101278.16;10285336;28;20332;-75
2022/12/12 23:02:27;;;;;;;0.20;0.20;;;;;;;-8.55;100.00;101276.38;10286767;28;20050;-74
2022/12/12 23:07:27;;;;;;;0.10;0.10;;;;;;;-8.54;100.00;101270.34;10320946;28;20405;-75
2022/12/12 23:12:27;;;;;;;0.20;0.20;;;;;;;-8.52;100.00;101274.59;10306621;28;20265;-75